createdAt,value
2023-02-14T00:00:50.351Z,38.97
2023-02-14T00:03:17.371Z,46.08
2023-02-14T00:05:44.316Z,37.78
2023-02-14T00:08:11.243Z,39.25
2023-02-14T00:10:38.196Z,77.32
2023-02-14T00:13:05.139Z,56.33
2023-02-14T00:15:32.046Z,76.93
2023-02-14T00:18:02.183Z,87.22
2023-02-14T00:20:29.430Z,102.88
2023-02-14T00:22:56.388Z,65.25
2023-02-14T00:25:23.499Z,97.55
2023-02-14T00:27:50.690Z,49.63
2023-02-14T00:30:17.656Z,108.90
2023-02-14T00:32:44.565Z,75.40
2023-02-14T00:35:11.882Z,78.57
2023-02-14T00:37:41.273Z,138.80
2023-02-14T00:40:08.779Z,182.30
2023-02-14T00:42:35.656Z,96.63
2023-02-14T00:45:02.698Z,78.53
2023-02-14T00:47:29.606Z,87.75
2023-02-14T00:49:56.524Z,65.57
2023-02-14T00:52:25.691Z,62.60
2023-02-14T00:54:52.503Z,87.25
2023-02-14T00:57:19.377Z,70.75
2023-02-14T00:59:46.250Z,46.45
2023-02-14T01:02:13.263Z,81.68
2023-02-14T01:04:40.343Z,75.53
2023-02-14T01:07:07.251Z,52.78
2023-02-14T01:09:35.280Z,74.00
2023-02-14T01:12:02.505Z,61.88
2023-02-14T01:14:29.464Z,45.40
2023-02-14T01:16:56.529Z,44.45
2023-02-14T01:19:24.693Z,45.65
2023-02-14T01:21:51.617Z,43.67
2023-02-14T01:24:18.551Z,50.08
2023-02-14T01:26:45.484Z,51.53
2023-02-14T01:29:12.412Z,49.83
2023-02-14T01:31:39.598Z,55.45
2023-02-14T01:34:06.624Z,50.67
2023-02-14T01:36:37.209Z,45.20
2023-02-14T01:39:11.626Z,61.38
2023-02-14T01:41:41.494Z,51.70
2023-02-14T01:44:28.442Z,43.50
2023-02-14T01:46:56.720Z,47.38
2023-02-14T01:49:28.474Z,44.20
2023-02-14T01:51:55.331Z,59.50
2023-02-14T01:54:25.201Z,50.65
2023-02-14T01:56:57.454Z,46.60
2023-02-14T01:59:32.432Z,51.80
2023-02-14T02:02:00.279Z,53.25
2023-02-14T02:04:32.523Z,46.78
2023-02-14T02:07:07.452Z,64.93
2023-02-14T02:09:39.161Z,49.20
2023-02-14T02:12:06.165Z,45.90
2023-02-14T02:14:33.949Z,50.38
2023-02-14T02:17:22.761Z,42.17
2023-02-14T02:20:28.633Z,39.17
2023-02-14T02:23:12.909Z,48.30
2023-02-14T02:26:24.890Z,40.25
2023-02-14T02:29:48.819Z,39.92
2023-02-14T02:32:27.361Z,33.00
2023-02-14T02:35:12.889Z,41.70
2023-02-14T02:37:58.502Z,42.40
2023-02-14T02:40:48.200Z,44.17
2023-02-14T02:43:30.472Z,31.63
2023-02-14T02:46:22.987Z,34.60
2023-02-14T02:48:59.217Z,32.57
2023-02-14T02:52:17.924Z,42.33
2023-02-14T02:54:52.499Z,30.90
2023-02-14T02:57:28.370Z,40.40
2023-02-14T02:59:57.771Z,37.47
2023-02-14T03:02:58.599Z,34.20
2023-02-14T03:05:28.464Z,33.63
2023-02-14T03:07:55.475Z,40.25
2023-02-14T03:10:26.021Z,42.60
2023-02-14T03:13:03.298Z,73.82
2023-02-14T03:15:41.559Z,59.40
2023-02-14T03:18:44.683Z,44.85
2023-02-14T03:21:22.297Z,47.63
2023-02-14T03:24:19.897Z,48.13
2023-02-14T03:27:06.081Z,57.20
2023-02-14T03:30:04.478Z,62.17
2023-02-14T03:32:39.062Z,73.10
2023-02-14T03:35:06.173Z,58.45
2023-02-14T03:37:54.247Z,55.00
2023-02-14T03:40:32.225Z,51.13
2023-02-14T03:43:06.232Z,64.70
2023-02-14T03:45:40.906Z,53.67
2023-02-14T03:48:16.073Z,61.25
2023-02-14T03:50:46.816Z,58.38
2023-02-14T03:53:17.251Z,60.22
2023-02-14T03:56:13.430Z,43.47
2023-02-14T03:58:51.973Z,50.13
2023-02-14T04:01:31.214Z,61.38
2023-02-14T04:03:59.654Z,53.35
2023-02-14T04:06:26.693Z,52.83
2023-02-14T04:08:53.728Z,46.13
2023-02-14T04:11:23.376Z,48.92
2023-02-14T04:13:51.444Z,44.50
2023-02-14T04:16:18.565Z,41.33
2023-02-14T04:19:04.104Z,46.15
2023-02-14T04:21:31.100Z,42.40
2023-02-14T04:23:58.100Z,36.88
2023-02-14T04:26:25.084Z,33.03
2023-02-14T04:28:52.071Z,32.75
2023-02-14T04:31:19.219Z,30.70
2023-02-14T04:33:48.121Z,31.83
2023-02-14T04:36:15.464Z,38.25
2023-02-14T04:38:42.565Z,51.60
2023-02-14T04:41:09.565Z,46.58
2023-02-14T04:43:36.707Z,55.65
2023-02-14T04:46:03.741Z,47.78
2023-02-14T04:48:30.746Z,46.30
2023-02-14T04:50:57.782Z,44.50
2023-02-14T04:53:24.902Z,43.42
2023-02-14T04:55:51.874Z,41.10
2023-02-14T04:58:18.985Z,38.75
2023-02-14T05:00:46.115Z,44.15
2023-02-14T05:03:13.176Z,42.25
2023-02-14T05:05:40.112Z,38.05
2023-02-14T05:08:07.072Z,37.35
2023-02-14T05:10:34.102Z,38.80
2023-02-14T05:13:02.097Z,38.97
2023-02-14T05:15:29.113Z,47.50
2023-02-14T05:17:56.164Z,37.97
2023-02-14T05:20:23.227Z,33.35
2023-02-14T05:22:50.403Z,35.97
2023-02-14T05:25:17.629Z,35.47
2023-02-14T05:27:44.653Z,42.78
2023-02-14T05:30:13.230Z,41.50
2023-02-14T05:32:41.085Z,41.40
2023-02-14T05:35:08.330Z,49.63
2023-02-14T05:37:35.280Z,50.25
2023-02-14T05:40:02.175Z,45.08
2023-02-14T05:42:29.057Z,54.00
2023-02-14T05:44:55.990Z,68.57
2023-02-14T05:47:22.950Z,55.17
2023-02-14T05:49:49.838Z,57.58
2023-02-14T05:52:16.939Z,64.45
2023-02-14T05:54:43.843Z,58.17
2023-02-14T05:57:10.731Z,55.97
2023-02-14T05:59:37.714Z,65.32
2023-02-14T06:02:05.746Z,57.00
2023-02-14T06:04:32.752Z,51.72
2023-02-14T06:06:59.928Z,47.78
2023-02-14T06:09:27.254Z,56.60
2023-02-14T06:11:55.347Z,51.03
2023-02-14T06:14:22.815Z,51.50
2023-02-14T06:16:50.006Z,56.05
2023-02-14T06:19:17.044Z,81.95
2023-02-14T06:21:44.074Z,64.65
2023-02-14T06:24:11.112Z,72.07
2023-02-14T06:26:38.088Z,73.90
2023-02-14T06:29:05.354Z,95.15
2023-02-14T06:31:32.533Z,58.15
2023-02-14T06:33:59.680Z,55.15
2023-02-14T06:36:27.373Z,59.08
2023-02-14T06:38:54.361Z,69.53
2023-02-14T06:41:21.395Z,67.20
2023-02-14T06:43:51.846Z,69.53
2023-02-14T06:46:20.593Z,69.63
2023-02-14T06:48:50.495Z,57.00
2023-02-14T06:51:17.860Z,59.55
2023-02-14T06:53:44.999Z,70.85
2023-02-14T06:56:12.060Z,64.57
2023-02-14T06:58:39.050Z,60.78
2023-02-14T07:01:06.110Z,67.15
2023-02-14T07:03:33.213Z,77.90
2023-02-14T07:06:00.612Z,65.30
2023-02-14T07:08:27.586Z,120.70
2023-02-14T07:10:58.880Z,74.88
2023-02-14T07:13:26.341Z,56.35
2023-02-14T07:15:53.531Z,55.67
2023-02-14T07:18:20.708Z,57.80
2023-02-14T07:20:47.781Z,61.10
2023-02-14T07:23:14.827Z,64.97
2023-02-14T07:25:52.345Z,49.65
2023-02-14T07:28:19.491Z,57.90
2023-02-14T07:30:46.640Z,62.60
2023-02-14T07:33:13.913Z,55.45
2023-02-14T07:35:41.403Z,50.40
2023-02-14T07:38:08.340Z,54.75
2023-02-14T07:40:35.311Z,64.55
2023-02-14T07:43:02.319Z,59.05
2023-02-14T07:45:29.756Z,59.60
2023-02-14T07:47:59.244Z,96.05
2023-02-14T07:50:26.559Z,90.60
2023-02-14T07:52:53.513Z,79.20
2023-02-14T07:55:21.161Z,103.90
2023-02-14T07:57:49.231Z,89.40
2023-02-14T08:00:29.530Z,121.38
2023-02-14T08:02:57.027Z,68.25
2023-02-14T08:05:24.154Z,111.70
2023-02-14T08:07:51.160Z,73.63
2023-02-14T08:10:18.380Z,80.22
2023-02-14T08:13:00.338Z,95.45
2023-02-14T08:15:46.842Z,86.47
2023-02-14T08:18:14.518Z,89.45
2023-02-14T08:20:41.882Z,108.00
2023-02-14T08:23:09.143Z,103.47
2023-02-14T08:29:45.487Z,114.45
2023-02-14T08:32:23.929Z,98.38
2023-02-14T08:34:50.977Z,101.93
2023-02-14T08:37:17.909Z,119.05
2023-02-14T08:39:52.345Z,102.75
2023-02-14T08:46:38.565Z,113.00
2023-02-14T08:49:05.890Z,100.25
2023-02-14T08:51:32.928Z,77.95
2023-02-14T08:54:05.496Z,61.13
2023-02-14T08:56:34.805Z,87.32
2023-02-14T08:59:05.442Z,64.55
2023-02-14T09:01:33.455Z,85.45
2023-02-14T09:04:04.136Z,73.88
2023-02-14T09:06:31.462Z,84.93
2023-02-14T09:09:01.508Z,73.38
2023-02-14T09:11:32.288Z,74.78
2023-02-14T09:13:59.305Z,59.35
2023-02-14T09:16:26.892Z,60.05
2023-02-14T09:18:57.537Z,63.88
2023-02-14T09:25:06.209Z,47.38
2023-02-14T09:27:39.379Z,45.30
2023-02-14T09:30:31.424Z,46.17
2023-02-14T09:33:00.362Z,47.13
2023-02-14T09:43:55.023Z,50.83
2023-02-14T09:46:24.751Z,45.17
2023-02-14T09:48:53.992Z,51.63
2023-02-14T09:51:25.718Z,36.55
2023-02-14T09:53:59.194Z,35.42
2023-02-14T09:56:50.323Z,41.25
2023-02-14T09:59:30.003Z,40.88
2023-02-14T10:02:21.219Z,46.20
2023-02-14T10:05:13.574Z,42.17
2023-02-14T10:08:07.596Z,27.60
2023-02-14T10:10:44.277Z,42.70
2023-02-14T10:13:16.425Z,53.25
2023-02-14T10:16:26.765Z,37.90
2023-02-14T10:19:04.928Z,34.22
2023-02-14T10:21:43.064Z,34.40
2023-02-14T10:24:23.545Z,35.45
2023-02-14T10:27:00.302Z,36.58
2023-02-14T10:34:38.756Z,33.40
2023-02-14T10:42:12.635Z,37.58
2023-02-14T10:45:07.666Z,38.35
2023-02-14T10:47:42.920Z,33.88
2023-02-14T10:50:23.449Z,35.70
2023-02-14T10:53:15.955Z,35.08
2023-02-14T10:55:54.983Z,38.28
2023-02-14T10:58:24.427Z,36.75
2023-02-14T11:00:58.897Z,35.53
2023-02-14T11:03:27.690Z,32.85
2023-02-14T11:05:54.898Z,29.65
2023-02-14T11:08:25.800Z,29.27
2023-02-14T11:10:59.004Z,34.00
2023-02-14T11:13:32.915Z,33.85
2023-02-14T11:16:14.396Z,33.30
2023-02-14T11:19:14.803Z,33.55
2023-02-14T11:21:45.928Z,31.80
2023-02-14T11:24:39.476Z,35.88
2023-02-14T11:27:18.400Z,35.10
2023-02-14T11:29:52.853Z,38.47
2023-02-14T11:32:29.800Z,39.85
2023-02-14T11:39:21.788Z,45.28
2023-02-14T11:41:53.704Z,37.28
2023-02-14T11:44:28.752Z,39.45
2023-02-14T11:47:25.120Z,42.83
2023-02-14T11:50:11.410Z,39.53
2023-02-14T11:52:55.184Z,43.35
2023-02-14T11:55:36.051Z,41.85
2023-02-14T11:58:05.880Z,45.28
2023-02-14T12:00:42.666Z,48.13
2023-02-14T12:03:35.257Z,46.58
2023-02-14T12:06:02.976Z,43.80
2023-02-14T12:08:32.122Z,49.13
2023-02-14T12:11:18.822Z,42.40
2023-02-14T12:13:57.617Z,50.28
2023-02-14T12:16:39.679Z,43.65
2023-02-14T12:19:16.561Z,44.22
2023-02-14T12:22:06.961Z,47.50
2023-02-14T12:24:40.034Z,43.60
2023-02-14T12:27:24.824Z,40.75
2023-02-14T12:30:02.144Z,46.13
2023-02-14T12:32:31.546Z,48.42
2023-02-14T12:35:20.429Z,44.08
2023-02-14T12:38:04.315Z,43.78
2023-02-14T12:41:01.918Z,42.92
2023-02-14T12:43:50.733Z,48.83
2023-02-14T12:46:58.286Z,49.13
2023-02-14T12:49:50.195Z,59.88
2023-02-14T12:52:41.843Z,56.80
2023-02-14T12:55:29.165Z,46.95
2023-02-14T12:58:26.699Z,63.25
2023-02-14T13:01:24.777Z,46.50
2023-02-14T13:04:39.959Z,46.28
2023-02-14T13:07:42.811Z,41.97
2023-02-14T13:10:45.429Z,46.45
2023-02-14T13:13:24.466Z,47.60
2023-02-14T13:16:04.334Z,46.22
2023-02-14T13:18:40.298Z,42.70
2023-02-14T13:21:11.743Z,42.75
2023-02-14T13:23:41.111Z,42.67
2023-02-14T13:26:29.530Z,46.67
2023-02-14T13:29:02.524Z,41.75
2023-02-14T13:34:06.966Z,44.88
2023-02-14T13:36:34.468Z,47.13
2023-02-14T13:39:02.466Z,49.30
2023-02-14T13:41:30.430Z,46.25
2023-02-14T13:44:02.786Z,45.92
2023-02-14T13:46:32.946Z,43.28
2023-02-14T13:49:28.071Z,47.08
2023-02-14T13:51:58.747Z,47.80
2023-02-14T13:54:47.111Z,46.92
2023-02-14T13:57:34.300Z,44.30
2023-02-14T14:00:16.533Z,49.55
2023-02-14T14:02:56.511Z,50.97
2023-02-14T14:05:32.590Z,45.35
2023-02-14T14:08:38.780Z,47.38
2023-02-14T14:11:12.062Z,50.60
2023-02-14T14:13:42.207Z,48.25
2023-02-14T14:16:26.348Z,48.92
2023-02-14T14:19:03.310Z,46.35
2023-02-14T14:21:34.724Z,49.78
2023-02-14T14:24:21.957Z,47.78
2023-02-14T14:27:03.964Z,48.55
2023-02-14T14:29:46.377Z,52.13
2023-02-14T14:32:25.238Z,51.10
2023-02-14T14:34:58.400Z,46.70
2023-02-14T14:37:31.712Z,45.83
2023-02-14T14:40:18.935Z,48.45
2023-02-14T14:42:48.664Z,54.15
2023-02-14T14:45:31.510Z,50.47
2023-02-14T14:48:02.975Z,52.78
2023-02-14T14:50:33.738Z,52.80
2023-02-14T14:53:09.714Z,52.15
2023-02-14T14:55:39.620Z,55.95
2023-02-14T14:58:28.134Z,56.17
2023-02-14T15:00:55.489Z,58.47
2023-02-14T15:03:25.561Z,65.47
2023-02-14T15:06:04.364Z,61.63
2023-02-14T15:08:32.348Z,54.40
2023-02-14T15:11:02.412Z,59.13
2023-02-14T15:13:51.138Z,60.45
2023-02-14T15:16:39.771Z,54.47
2023-02-14T15:19:23.925Z,61.92
2023-02-14T15:21:51.304Z,53.00
2023-02-14T15:24:19.690Z,52.40
2023-02-14T15:26:48.566Z,59.10
2023-02-14T15:29:29.550Z,53.90
2023-02-14T15:32:18.356Z,63.67
2023-02-14T15:34:45.538Z,55.03
2023-02-14T15:37:13.122Z,58.92
2023-02-14T15:39:52.667Z,54.58
2023-02-14T15:42:26.130Z,64.82
2023-02-14T15:45:18.260Z,58.70
2023-02-14T15:47:47.907Z,59.03
2023-02-14T15:50:31.637Z,59.65
2023-02-14T15:53:29.922Z,58.65
2023-02-14T15:56:26.196Z,59.90
2023-02-14T15:59:00.693Z,60.47
2023-02-14T16:01:28.831Z,58.60
2023-02-14T16:03:59.919Z,60.33
2023-02-14T16:06:36.197Z,59.38
2023-02-14T16:09:05.628Z,55.20
2023-02-14T16:11:35.644Z,61.25
2023-02-14T16:14:36.577Z,60.00
2023-02-14T16:17:12.881Z,63.95
2023-02-14T16:19:45.600Z,63.75
2023-02-14T16:22:25.682Z,81.93
2023-02-14T16:24:52.564Z,59.92
2023-02-14T16:27:19.550Z,60.33
2023-02-14T16:29:46.485Z,63.17
2023-02-14T16:32:20.156Z,71.40
2023-02-14T16:34:48.447Z,69.28
2023-02-14T16:37:25.953Z,62.15
2023-02-14T16:39:56.631Z,63.05
2023-02-14T16:42:24.960Z,66.25
2023-02-14T16:44:52.184Z,68.43
2023-02-14T16:47:21.294Z,64.78
2023-02-14T16:49:48.768Z,66.78
2023-02-14T16:52:26.106Z,61.85
2023-02-14T16:54:53.577Z,68.80
2023-02-14T16:57:30.602Z,70.00
2023-02-14T16:59:57.735Z,66.65
2023-02-14T17:02:28.500Z,61.92
2023-02-14T17:04:55.641Z,62.85
2023-02-14T17:07:23.129Z,75.50
2023-02-14T17:09:57.822Z,76.55
2023-02-14T17:12:28.812Z,109.13
2023-02-14T17:15:00.288Z,129.05
2023-02-14T17:17:27.339Z,96.55
2023-02-14T17:19:54.295Z,87.97
2023-02-14T17:22:21.274Z,83.30
2023-02-14T17:24:48.254Z,97.05
2023-02-14T17:27:15.252Z,122.28
2023-02-14T17:29:42.104Z,117.05
2023-02-14T17:32:14.209Z,77.35
2023-02-14T17:34:42.465Z,86.10
2023-02-14T17:37:09.564Z,78.43
2023-02-14T17:39:36.521Z,120.07
2023-02-14T17:42:03.844Z,75.10
2023-02-14T17:44:32.628Z,84.65
2023-02-14T17:46:59.582Z,85.20
2023-02-14T17:49:26.790Z,93.53
2023-02-14T17:51:53.845Z,102.47
2023-02-14T17:54:20.717Z,77.93
2023-02-14T17:56:47.669Z,95.28
2023-02-14T17:59:14.573Z,80.38
2023-02-14T18:01:41.561Z,98.80
2023-02-14T18:04:08.534Z,81.82
2023-02-14T18:06:36.295Z,151.38
2023-02-14T18:09:06.217Z,95.30
2023-02-14T18:11:33.653Z,91.22
2023-02-14T18:14:01.803Z,76.78
2023-02-14T18:16:29.331Z,87.75
2023-02-14T18:18:56.572Z,101.65
2023-02-14T18:21:24.794Z,115.18
2023-02-14T18:23:52.036Z,105.88
2023-02-14T18:26:19.673Z,98.22
2023-02-14T18:28:46.919Z,78.82
2023-02-14T18:31:16.857Z,106.70
2023-02-14T18:33:44.859Z,168.23
2023-02-14T18:36:14.334Z,106.57
2023-02-14T18:38:42.606Z,140.98
2023-02-14T18:41:11.877Z,99.45
2023-02-14T18:43:41.165Z,107.38
2023-02-14T18:46:18.489Z,126.50
2023-02-14T18:48:47.962Z,82.07
2023-02-14T18:51:19.297Z,98.68
2023-02-14T18:53:47.048Z,76.47
2023-02-14T18:56:16.793Z,86.32
2023-02-14T18:58:47.586Z,77.78
2023-02-14T19:01:22.107Z,98.53
2023-02-14T19:03:55.466Z,88.35
2023-02-14T19:06:31.452Z,103.07
2023-02-14T19:08:59.071Z,81.60
2023-02-14T19:11:30.484Z,83.80
2023-02-14T19:13:59.554Z,93.93
2023-02-14T19:16:33.274Z,75.93
2023-02-14T19:19:02.945Z,74.10
2023-02-14T19:21:33.929Z,93.63
2023-02-14T19:24:03.592Z,62.40
2023-02-14T19:26:35.043Z,86.28
2023-02-14T19:29:05.617Z,65.85
2023-02-14T19:31:36.678Z,57.90
2023-02-14T19:34:06.449Z,107.30
2023-02-14T19:36:36.425Z,92.03
2023-02-14T19:39:04.369Z,101.80
2023-02-14T19:41:41.032Z,58.47
2023-02-14T19:44:10.257Z,64.20
2023-02-14T19:46:38.704Z,64.30
2023-02-14T19:49:05.937Z,59.30
2023-02-14T19:51:36.212Z,65.07
2023-02-14T19:54:06.191Z,64.05
2023-02-14T19:56:36.687Z,53.97
2023-02-14T19:59:07.864Z,62.92
2023-02-14T20:01:46.242Z,74.13
2023-02-14T20:04:16.423Z,84.63
2023-02-14T20:06:45.061Z,150.82
2023-02-14T20:09:13.014Z,83.18
2023-02-14T20:11:50.201Z,94.57
2023-02-14T20:14:23.927Z,64.75
2023-02-14T20:16:52.606Z,80.70
2023-02-14T20:19:22.228Z,114.50
2023-02-14T20:21:52.683Z,113.47
2023-02-14T20:24:25.325Z,78.07
2023-02-14T20:26:53.249Z,104.50
2023-02-14T20:29:22.793Z,90.68
2023-02-14T20:31:53.075Z,61.50
2023-02-14T20:34:21.381Z,69.05
2023-02-14T20:36:53.036Z,54.83
2023-02-14T20:39:21.417Z,58.35
2023-02-14T20:41:53.172Z,63.08
2023-02-14T20:44:21.683Z,59.80
2023-02-14T20:46:51.596Z,47.67
2023-02-14T20:49:19.797Z,77.43
2023-02-14T20:51:49.731Z,74.03
2023-02-14T20:54:21.749Z,60.90
2023-02-14T20:56:51.286Z,61.83
2023-02-14T20:59:27.316Z,74.72
2023-02-14T21:01:55.998Z,72.47
2023-02-14T21:04:23.410Z,63.35
2023-02-14T21:06:50.548Z,56.38
2023-02-14T21:09:18.691Z,52.42
2023-02-14T21:11:45.808Z,54.50
2023-02-14T21:14:13.197Z,66.07
2023-02-14T21:16:40.124Z,60.15
2023-02-14T21:19:07.055Z,64.60
2023-02-14T21:21:37.747Z,53.15
2023-02-14T21:24:11.247Z,56.05
2023-02-14T21:26:38.939Z,72.47
2023-02-14T21:29:07.110Z,94.13
2023-02-14T21:31:34.720Z,54.63
2023-02-14T21:34:02.785Z,66.25
2023-02-14T21:36:31.868Z,41.95
2023-02-14T21:39:00.129Z,42.58
2023-02-14T21:41:31.740Z,43.42
2023-02-14T21:44:00.155Z,39.97
2023-02-14T21:46:33.432Z,39.55
2023-02-14T21:49:21.011Z,38.30
2023-02-14T21:51:54.077Z,43.53
2023-02-14T21:54:24.156Z,41.92
2023-02-14T21:56:51.148Z,39.15
2023-02-14T21:59:18.013Z,36.92
2023-02-14T22:01:44.989Z,36.75
2023-02-14T22:04:12.939Z,48.50
2023-02-14T22:06:41.886Z,45.28
2023-02-14T22:09:10.859Z,57.83
2023-02-14T22:11:37.966Z,60.28
2023-02-14T22:14:04.985Z,50.65
2023-02-14T22:16:32.266Z,65.75
2023-02-14T22:18:59.292Z,57.53
2023-02-14T22:21:27.338Z,42.22
2023-02-14T22:23:55.405Z,45.47
2023-02-14T22:26:25.718Z,71.75
2023-02-14T22:28:56.806Z,49.58
2023-02-14T22:31:50.066Z,50.60
2023-02-14T22:34:19.856Z,65.28
2023-02-14T22:36:48.624Z,50.60
2023-02-14T22:39:17.031Z,102.18
2023-02-14T22:41:44.678Z,109.45
2023-02-14T22:44:12.830Z,110.60
2023-02-14T22:46:40.024Z,56.55
2023-02-14T22:49:07.568Z,52.30
2023-02-14T22:51:41.726Z,48.28
2023-02-14T22:54:32.898Z,51.22
2023-02-14T22:57:11.669Z,62.80
2023-02-14T22:59:43.336Z,47.78
2023-02-14T23:02:19.781Z,64.22
2023-02-14T23:04:47.996Z,59.22
2023-02-14T23:07:16.094Z,48.17
2023-02-14T23:09:48.767Z,56.80
2023-02-14T23:12:38.039Z,47.88
2023-02-14T23:15:28.110Z,56.45
2023-02-14T23:18:13.688Z,147.40
2023-02-14T23:20:59.182Z,102.35
2023-02-14T23:23:30.754Z,136.48
2023-02-14T23:25:57.822Z,81.28
2023-02-14T23:28:25.217Z,48.70
2023-02-14T23:30:52.192Z,49.08
2023-02-14T23:33:19.170Z,46.38
2023-02-14T23:35:46.040Z,81.93
2023-02-14T23:38:13.035Z,66.30
2023-02-14T23:40:58.512Z,82.07
2023-02-14T23:43:25.432Z,84.45
2023-02-14T23:45:52.612Z,72.97
2023-02-14T23:48:19.625Z,36.50
2023-02-14T23:50:46.555Z,79.13
2023-02-14T23:53:15.373Z,105.88
2023-02-14T23:55:42.230Z,45.15
2023-02-14T23:58:09.226Z,90.72
